sensor_id;sensor_type;location;lat;lon;timestamp;P1;durP1;ratioP1;P2;durP2;ratioP2
74465;SDS011;62916;50.044;15.938;2023-07-30T00:00:18;0.80;;;0.70;;
74465;SDS011;62916;50.044;15.938;2023-07-30T00:02:49;3.20;;;0.90;;
74465;SDS011;62916;50.044;15.938;2023-07-30T00:05:20;1.60;;;0.80;;
74465;SDS011;62916;50.044;15.938;2023-07-30T00:07:51;2.30;;;1.30;;
74465;SDS011;62916;50.044;15.938;2023-07-30T00:10:22;1.40;;;0.80;;
74465;SDS011;62916;50.044;15.938;2023-07-30T00:12:53;1.40;;;0.60;;
74465;SDS011;62916;50.044;15.938;2023-07-30T00:15:24;2.80;;;0.80;;
74465;SDS011;62916;50.044;15.938;2023-07-30T00:17:55;1.30;;;0.70;;
74465;SDS011;62916;50.044;15.938;2023-07-30T00:20:26;0.80;;;0.50;;
74465;SDS011;62916;50.044;15.938;2023-07-30T00:22:57;0.90;;;0.70;;
74465;SDS011;62916;50.044;15.938;2023-07-30T00:25:28;1.50;;;0.60;;
74465;SDS011;62916;50.044;15.938;2023-07-30T00:27:58;0.70;;;0.70;;
74465;SDS011;62916;50.044;15.938;2023-07-30T00:30:29;0.70;;;0.60;;
74465;SDS011;62916;50.044;15.938;2023-07-30T00:33:00;1.90;;;0.60;;
74465;SDS011;62916;50.044;15.938;2023-07-30T00:35:31;1.80;;;0.70;;
74465;SDS011;62916;50.044;15.938;2023-07-30T00:38:02;1.40;;;1.00;;
74465;SDS011;62916;50.044;15.938;2023-07-30T00:40:33;2.10;;;0.90;;
74465;SDS011;62916;50.044;15.938;2023-07-30T00:43:10;1.40;;;0.60;;
74465;SDS011;62916;50.044;15.938;2023-07-30T00:45:41;0.70;;;0.60;;
74465;SDS011;62916;50.044;15.938;2023-07-30T00:48:13;1.40;;;0.50;;
74465;SDS011;62916;50.044;15.938;2023-07-30T00:50:44;1.50;;;0.80;;
74465;SDS011;62916;50.044;15.938;2023-07-30T00:53:15;0.90;;;0.60;;
74465;SDS011;62916;50.044;15.938;2023-07-30T00:55:47;2.40;;;1.20;;
74465;SDS011;62916;50.044;15.938;2023-07-30T00:58:19;1.10;;;0.60;;
74465;SDS011;62916;50.044;15.938;2023-07-30T01:00:52;1.80;;;0.80;;
74465;SDS011;62916;50.044;15.938;2023-07-30T01:03:23;1.00;;;0.80;;
74465;SDS011;62916;50.044;15.938;2023-07-30T01:05:55;2.20;;;0.90;;
74465;SDS011;62916;50.044;15.938;2023-07-30T01:08:26;1.30;;;0.80;;
74465;SDS011;62916;50.044;15.938;2023-07-30T01:10:57;1.00;;;0.60;;
74465;SDS011;62916;50.044;15.938;2023-07-30T01:13:28;1.60;;;0.50;;
74465;SDS011;62916;50.044;15.938;2023-07-30T01:16:01;0.80;;;0.70;;
74465;SDS011;62916;50.044;15.938;2023-07-30T01:18:34;1.50;;;0.80;;
74465;SDS011;62916;50.044;15.938;2023-07-30T01:21:05;1.30;;;0.90;;
74465;SDS011;62916;50.044;15.938;2023-07-30T01:23:37;2.10;;;0.60;;
74465;SDS011;62916;50.044;15.938;2023-07-30T01:26:09;1.20;;;0.60;;
74465;SDS011;62916;50.044;15.938;2023-07-30T01:28:46;4.10;;;0.80;;
74465;SDS011;62916;50.044;15.938;2023-07-30T01:31:20;1.30;;;0.80;;
74465;SDS011;62916;50.044;15.938;2023-07-30T01:33:54;1.80;;;0.70;;
74465;SDS011;62916;50.044;15.938;2023-07-30T01:36:27;1.10;;;1.00;;
74465;SDS011;62916;50.044;15.938;2023-07-30T01:39:01;1.60;;;1.20;;
74465;SDS011;62916;50.044;15.938;2023-07-30T01:41:32;1.70;;;0.70;;
74465;SDS011;62916;50.044;15.938;2023-07-30T01:44:04;1.60;;;0.80;;
74465;SDS011;62916;50.044;15.938;2023-07-30T01:46:35;0.70;;;0.70;;
74465;SDS011;62916;50.044;15.938;2023-07-30T01:49:06;1.90;;;0.80;;
74465;SDS011;62916;50.044;15.938;2023-07-30T01:51:37;2.10;;;0.80;;
74465;SDS011;62916;50.044;15.938;2023-07-30T01:54:08;2.60;;;0.80;;
74465;SDS011;62916;50.044;15.938;2023-07-30T01:56:38;2.00;;;0.80;;
74465;SDS011;62916;50.044;15.938;2023-07-30T01:59:09;1.60;;;0.80;;
74465;SDS011;62916;50.044;15.938;2023-07-30T02:01:41;1.10;;;0.90;;
74465;SDS011;62916;50.044;15.938;2023-07-30T02:04:12;1.90;;;1.00;;
74465;SDS011;62916;50.044;15.938;2023-07-30T02:06:44;1.90;;;0.80;;
74465;SDS011;62916;50.044;15.938;2023-07-30T02:09:15;0.70;;;0.70;;
74465;SDS011;62916;50.044;15.938;2023-07-30T02:11:46;0.90;;;0.60;;
74465;SDS011;62916;50.044;15.938;2023-07-30T02:14:17;3.80;;;0.70;;
74465;SDS011;62916;50.044;15.938;2023-07-30T02:16:48;1.10;;;0.60;;
74465;SDS011;62916;50.044;15.938;2023-07-30T02:19:18;1.30;;;0.80;;
74465;SDS011;62916;50.044;15.938;2023-07-30T02:21:49;1.90;;;0.70;;
74465;SDS011;62916;50.044;15.938;2023-07-30T02:24:20;2.60;;;0.80;;
74465;SDS011;62916;50.044;15.938;2023-07-30T02:26:51;4.50;;;0.80;;
74465;SDS011;62916;50.044;15.938;2023-07-30T02:29:22;1.80;;;0.80;;
74465;SDS011;62916;50.044;15.938;2023-07-30T02:31:53;1.20;;;0.70;;
74465;SDS011;62916;50.044;15.938;2023-07-30T02:34:23;1.60;;;0.80;;
74465;SDS011;62916;50.044;15.938;2023-07-30T02:36:54;2.00;;;0.70;;
74465;SDS011;62916;50.044;15.938;2023-07-30T02:39:25;1.70;;;0.90;;
74465;SDS011;62916;50.044;15.938;2023-07-30T02:41:56;2.30;;;0.80;;
74465;SDS011;62916;50.044;15.938;2023-07-30T02:44:27;1.30;;;0.90;;
74465;SDS011;62916;50.044;15.938;2023-07-30T02:46:57;1.80;;;0.80;;
74465;SDS011;62916;50.044;15.938;2023-07-30T02:49:28;2.40;;;0.90;;
74465;SDS011;62916;50.044;15.938;2023-07-30T02:51:59;1.80;;;0.70;;
74465;SDS011;62916;50.044;15.938;2023-07-30T02:54:30;1.00;;;0.80;;
74465;SDS011;62916;50.044;15.938;2023-07-30T02:57:01;2.30;;;0.90;;
74465;SDS011;62916;50.044;15.938;2023-07-30T02:59:32;2.70;;;0.80;;
74465;SDS011;62916;50.044;15.938;2023-07-30T03:02:06;0.80;;;0.80;;
74465;SDS011;62916;50.044;15.938;2023-07-30T03:04:37;1.20;;;0.60;;
74465;SDS011;62916;50.044;15.938;2023-07-30T03:07:10;1.20;;;0.60;;
74465;SDS011;62916;50.044;15.938;2023-07-30T03:09:41;1.60;;;0.80;;
74465;SDS011;62916;50.044;15.938;2023-07-30T03:12:12;0.90;;;0.60;;
74465;SDS011;62916;50.044;15.938;2023-07-30T03:14:43;2.10;;;0.80;;
74465;SDS011;62916;50.044;15.938;2023-07-30T03:17:14;2.00;;;0.90;;
74465;SDS011;62916;50.044;15.938;2023-07-30T03:19:45;1.90;;;0.80;;
74465;SDS011;62916;50.044;15.938;2023-07-30T03:22:16;2.10;;;0.80;;
74465;SDS011;62916;50.044;15.938;2023-07-30T03:24:47;1.50;;;0.70;;
74465;SDS011;62916;50.044;15.938;2023-07-30T03:27:18;2.80;;;0.80;;
74465;SDS011;62916;50.044;15.938;2023-07-30T03:29:50;1.10;;;1.00;;
74465;SDS011;62916;50.044;15.938;2023-07-30T03:32:21;4.40;;;1.10;;
74465;SDS011;62916;50.044;15.938;2023-07-30T03:34:52;2.70;;;0.80;;
74465;SDS011;62916;50.044;15.938;2023-07-30T03:37:23;1.70;;;1.10;;
74465;SDS011;62916;50.044;15.938;2023-07-30T03:39:53;1.60;;;0.60;;
74465;SDS011;62916;50.044;15.938;2023-07-30T03:42:24;1.10;;;0.60;;
74465;SDS011;62916;50.044;15.938;2023-07-30T03:44:58;0.80;;;0.60;;
74465;SDS011;62916;50.044;15.938;2023-07-30T03:47:29;1.10;;;0.90;;
74465;SDS011;62916;50.044;15.938;2023-07-30T03:50:00;0.90;;;0.90;;
74465;SDS011;62916;50.044;15.938;2023-07-30T03:52:31;2.50;;;0.90;;
74465;SDS011;62916;50.044;15.938;2023-07-30T03:55:02;2.60;;;1.00;;
74465;SDS011;62916;50.044;15.938;2023-07-30T03:57:34;3.20;;;0.80;;
74465;SDS011;62916;50.044;15.938;2023-07-30T04:00:06;3.00;;;1.00;;
74465;SDS011;62916;50.044;15.938;2023-07-30T04:02:38;2.10;;;0.90;;
74465;SDS011;62916;50.044;15.938;2023-07-30T04:05:09;0.80;;;0.70;;
74465;SDS011;62916;50.044;15.938;2023-07-30T04:07:40;1.20;;;0.90;;
74465;SDS011;62916;50.044;15.938;2023-07-30T04:10:11;1.50;;;0.90;;
74465;SDS011;62916;50.044;15.938;2023-07-30T04:12:41;3.00;;;0.80;;
74465;SDS011;62916;50.044;15.938;2023-07-30T04:15:14;2.80;;;1.10;;
74465;SDS011;62916;50.044;15.938;2023-07-30T04:17:45;3.30;;;2.00;;
74465;SDS011;62916;50.044;15.938;2023-07-30T04:20:16;2.70;;;1.10;;
74465;SDS011;62916;50.044;15.938;2023-07-30T04:22:46;2.80;;;0.90;;
74465;SDS011;62916;50.044;15.938;2023-07-30T04:25:17;1.80;;;0.80;;
74465;SDS011;62916;50.044;15.938;2023-07-30T04:27:48;2.60;;;0.70;;
74465;SDS011;62916;50.044;15.938;2023-07-30T04:30:19;2.20;;;1.20;;
74465;SDS011;62916;50.044;15.938;2023-07-30T04:32:50;4.40;;;1.00;;
74465;SDS011;62916;50.044;15.938;2023-07-30T04:35:21;2.50;;;1.00;;
74465;SDS011;62916;50.044;15.938;2023-07-30T04:37:52;1.60;;;0.90;;
74465;SDS011;62916;50.044;15.938;2023-07-30T04:40:23;1.90;;;1.30;;
74465;SDS011;62916;50.044;15.938;2023-07-30T04:42:54;1.70;;;0.90;;
74465;SDS011;62916;50.044;15.938;2023-07-30T04:45:25;1.70;;;0.90;;
74465;SDS011;62916;50.044;15.938;2023-07-30T04:47:56;1.80;;;0.80;;
74465;SDS011;62916;50.044;15.938;2023-07-30T04:50:27;1.40;;;0.90;;
74465;SDS011;62916;50.044;15.938;2023-07-30T04:52:58;2.20;;;1.40;;
74465;SDS011;62916;50.044;15.938;2023-07-30T04:55:29;2.20;;;0.90;;
74465;SDS011;62916;50.044;15.938;2023-07-30T04:58:01;1.40;;;1.10;;
74465;SDS011;62916;50.044;15.938;2023-07-30T05:00:32;2.10;;;1.00;;
74465;SDS011;62916;50.044;15.938;2023-07-30T05:03:03;3.40;;;0.90;;
74465;SDS011;62916;50.044;15.938;2023-07-30T05:05:34;2.50;;;0.90;;
74465;SDS011;62916;50.044;15.938;2023-07-30T05:08:05;2.60;;;1.10;;
74465;SDS011;62916;50.044;15.938;2023-07-30T05:10:36;2.70;;;1.20;;
74465;SDS011;62916;50.044;15.938;2023-07-30T05:13:07;2.30;;;1.10;;
74465;SDS011;62916;50.044;15.938;2023-07-30T05:15:40;2.30;;;1.20;;
74465;SDS011;62916;50.044;15.938;2023-07-30T05:18:12;2.10;;;1.90;;
74465;SDS011;62916;50.044;15.938;2023-07-30T05:20:43;3.00;;;1.50;;
74465;SDS011;62916;50.044;15.938;2023-07-30T05:23:16;3.30;;;1.70;;
74465;SDS011;62916;50.044;15.938;2023-07-30T05:25:46;3.00;;;1.50;;
74465;SDS011;62916;50.044;15.938;2023-07-30T05:28:17;2.80;;;1.50;;
74465;SDS011;62916;50.044;15.938;2023-07-30T05:30:48;2.30;;;1.10;;
74465;SDS011;62916;50.044;15.938;2023-07-30T05:33:19;2.60;;;1.60;;
74465;SDS011;62916;50.044;15.938;2023-07-30T05:35:50;2.70;;;1.60;;
74465;SDS011;62916;50.044;15.938;2023-07-30T05:38:21;2.90;;;1.90;;
74465;SDS011;62916;50.044;15.938;2023-07-30T05:40:52;2.10;;;1.60;;
74465;SDS011;62916;50.044;15.938;2023-07-30T05:43:22;2.20;;;1.50;;
74465;SDS011;62916;50.044;15.938;2023-07-30T05:45:53;2.40;;;1.20;;
74465;SDS011;62916;50.044;15.938;2023-07-30T05:48:24;2.90;;;1.50;;
74465;SDS011;62916;50.044;15.938;2023-07-30T05:50:55;3.50;;;1.70;;
74465;SDS011;62916;50.044;15.938;2023-07-30T05:53:26;3.90;;;1.70;;
74465;SDS011;62916;50.044;15.938;2023-07-30T05:55:57;3.50;;;1.60;;
74465;SDS011;62916;50.044;15.938;2023-07-30T05:58:27;4.90;;;1.50;;
74465;SDS011;62916;50.044;15.938;2023-07-30T06:00:58;5.00;;;2.20;;
74465;SDS011;62916;50.044;15.938;2023-07-30T06:03:29;4.00;;;2.20;;
74465;SDS011;62916;50.044;15.938;2023-07-30T06:06:02;3.90;;;2.20;;
74465;SDS011;62916;50.044;15.938;2023-07-30T06:08:33;4.60;;;2.60;;
74465;SDS011;62916;50.044;15.938;2023-07-30T06:11:04;3.80;;;2.80;;
74465;SDS011;62916;50.044;15.938;2023-07-30T06:13:35;4.90;;;2.80;;
74465;SDS011;62916;50.044;15.938;2023-07-30T06:16:06;5.70;;;3.30;;
74465;SDS011;62916;50.044;15.938;2023-07-30T06:18:37;7.80;;;4.60;;
74465;SDS011;62916;50.044;15.938;2023-07-30T06:21:08;6.50;;;3.70;;
74465;SDS011;62916;50.044;15.938;2023-07-30T06:23:39;5.60;;;3.40;;
74465;SDS011;62916;50.044;15.938;2023-07-30T06:26:10;6.50;;;3.30;;
74465;SDS011;62916;50.044;15.938;2023-07-30T06:28:41;5.80;;;3.70;;
74465;SDS011;62916;50.044;15.938;2023-07-30T06:31:14;8.20;;;4.10;;
74465;SDS011;62916;50.044;15.938;2023-07-30T06:33:45;5.90;;;3.70;;
74465;SDS011;62916;50.044;15.938;2023-07-30T06:36:18;6.30;;;4.40;;
74465;SDS011;62916;50.044;15.938;2023-07-30T06:38:49;7.90;;;4.20;;
74465;SDS011;62916;50.044;15.938;2023-07-30T06:41:20;5.40;;;4.00;;
74465;SDS011;62916;50.044;15.938;2023-07-30T06:43:51;5.90;;;3.80;;
74465;SDS011;62916;50.044;15.938;2023-07-30T06:46:22;6.10;;;3.40;;
74465;SDS011;62916;50.044;15.938;2023-07-30T06:48:53;4.40;;;3.30;;
74465;SDS011;62916;50.044;15.938;2023-07-30T06:51:25;5.00;;;3.30;;
74465;SDS011;62916;50.044;15.938;2023-07-30T06:53:57;5.80;;;3.60;;
74465;SDS011;62916;50.044;15.938;2023-07-30T06:56:28;13.30;;;7.60;;
74465;SDS011;62916;50.044;15.938;2023-07-30T06:58:58;12.10;;;6.30;;
74465;SDS011;62916;50.044;15.938;2023-07-30T07:01:30;12.40;;;7.20;;
74465;SDS011;62916;50.044;15.938;2023-07-30T07:04:01;11.10;;;6.80;;
74465;SDS011;62916;50.044;15.938;2023-07-30T07:06:32;14.50;;;6.70;;
74465;SDS011;62916;50.044;15.938;2023-07-30T07:09:04;10.00;;;5.50;;
74465;SDS011;62916;50.044;15.938;2023-07-30T07:11:35;12.20;;;5.30;;
74465;SDS011;62916;50.044;15.938;2023-07-30T07:14:07;9.10;;;5.20;;
74465;SDS011;62916;50.044;15.938;2023-07-30T07:16:38;9.30;;;3.70;;
74465;SDS011;62916;50.044;15.938;2023-07-30T07:19:09;5.10;;;3.30;;
74465;SDS011;62916;50.044;15.938;2023-07-30T07:21:40;4.20;;;3.00;;
74465;SDS011;62916;50.044;15.938;2023-07-30T07:24:11;5.30;;;3.00;;
74465;SDS011;62916;50.044;15.938;2023-07-30T07:26:42;4.20;;;2.30;;
74465;SDS011;62916;50.044;15.938;2023-07-30T07:29:13;3.40;;;2.40;;
74465;SDS011;62916;50.044;15.938;2023-07-30T07:31:46;3.70;;;2.30;;
74465;SDS011;62916;50.044;15.938;2023-07-30T07:34:17;2.40;;;2.00;;
74465;SDS011;62916;50.044;15.938;2023-07-30T07:36:48;3.10;;;1.90;;
74465;SDS011;62916;50.044;15.938;2023-07-30T07:39:19;4.40;;;2.10;;
74465;SDS011;62916;50.044;15.938;2023-07-30T07:41:50;2.80;;;1.90;;
74465;SDS011;62916;50.044;15.938;2023-07-30T07:44:21;2.10;;;1.70;;
74465;SDS011;62916;50.044;15.938;2023-07-30T07:46:53;3.60;;;2.10;;
74465;SDS011;62916;50.044;15.938;2023-07-30T07:49:23;3.30;;;2.00;;
74465;SDS011;62916;50.044;15.938;2023-07-30T07:51:55;2.00;;;1.70;;
74465;SDS011;62916;50.044;15.938;2023-07-30T07:54:26;2.10;;;1.60;;
74465;SDS011;62916;50.044;15.938;2023-07-30T07:56:57;6.20;;;1.90;;
74465;SDS011;62916;50.044;15.938;2023-07-30T07:59:28;2.50;;;1.50;;
74465;SDS011;62916;50.044;15.938;2023-07-30T08:01:59;1.90;;;1.70;;
74465;SDS011;62916;50.044;15.938;2023-07-30T08:04:30;3.20;;;1.30;;
74465;SDS011;62916;50.044;15.938;2023-07-30T08:07:01;2.50;;;1.40;;
74465;SDS011;62916;50.044;15.938;2023-07-30T08:09:33;2.20;;;1.50;;
74465;SDS011;62916;50.044;15.938;2023-07-30T08:12:05;1.80;;;1.50;;
74465;SDS011;62916;50.044;15.938;2023-07-30T08:14:37;2.40;;;1.30;;
74465;SDS011;62916;50.044;15.938;2023-07-30T08:17:07;2.10;;;1.40;;
74465;SDS011;62916;50.044;15.938;2023-07-30T08:19:38;2.00;;;1.40;;
74465;SDS011;62916;50.044;15.938;2023-07-30T08:22:10;1.70;;;1.30;;
74465;SDS011;62916;50.044;15.938;2023-07-30T08:24:41;2.50;;;1.40;;
74465;SDS011;62916;50.044;15.938;2023-07-30T08:27:12;2.50;;;1.40;;
74465;SDS011;62916;50.044;15.938;2023-07-30T08:29:43;2.50;;;1.40;;
74465;SDS011;62916;50.044;15.938;2023-07-30T08:32:14;1.90;;;1.40;;
74465;SDS011;62916;50.044;15.938;2023-07-30T08:34:46;2.70;;;1.40;;
74465;SDS011;62916;50.044;15.938;2023-07-30T08:37:17;2.30;;;1.20;;
74465;SDS011;62916;50.044;15.938;2023-07-30T08:39:48;1.90;;;1.30;;
74465;SDS011;62916;50.044;15.938;2023-07-30T08:42:21;1.10;;;1.00;;
74465;SDS011;62916;50.044;15.938;2023-07-30T08:44:53;1.60;;;1.30;;
74465;SDS011;62916;50.044;15.938;2023-07-30T08:47:24;2.10;;;1.40;;
74465;SDS011;62916;50.044;15.938;2023-07-30T08:49:56;1.80;;;1.50;;
74465;SDS011;62916;50.044;15.938;2023-07-30T08:52:27;2.00;;;1.40;;
74465;SDS011;62916;50.044;15.938;2023-07-30T08:55:01;2.70;;;1.30;;
74465;SDS011;62916;50.044;15.938;2023-07-30T08:57:33;1.60;;;1.40;;
74465;SDS011;62916;50.044;15.938;2023-07-30T09:00:05;2.50;;;1.30;;
74465;SDS011;62916;50.044;15.938;2023-07-30T09:02:39;1.90;;;1.20;;
74465;SDS011;62916;50.044;15.938;2023-07-30T09:05:13;1.90;;;1.30;;
74465;SDS011;62916;50.044;15.938;2023-07-30T09:07:44;1.40;;;1.30;;
74465;SDS011;62916;50.044;15.938;2023-07-30T09:10:16;2.60;;;1.60;;
74465;SDS011;62916;50.044;15.938;2023-07-30T09:12:51;1.80;;;1.20;;
74465;SDS011;62916;50.044;15.938;2023-07-30T09:15:30;1.70;;;1.60;;
74465;SDS011;62916;50.044;15.938;2023-07-30T09:18:02;2.00;;;1.40;;
74465;SDS011;62916;50.044;15.938;2023-07-30T09:20:38;1.40;;;1.30;;
74465;SDS011;62916;50.044;15.938;2023-07-30T09:23:10;1.80;;;1.30;;
74465;SDS011;62916;50.044;15.938;2023-07-30T09:25:41;2.80;;;1.50;;
74465;SDS011;62916;50.044;15.938;2023-07-30T09:28:16;1.90;;;1.40;;
74465;SDS011;62916;50.044;15.938;2023-07-30T09:30:49;1.60;;;1.30;;
74465;SDS011;62916;50.044;15.938;2023-07-30T09:33:47;1.40;;;1.20;;
74465;SDS011;62916;50.044;15.938;2023-07-30T09:36:19;3.50;;;1.50;;
74465;SDS011;62916;50.044;15.938;2023-07-30T09:38:50;2.40;;;1.50;;
74465;SDS011;62916;50.044;15.938;2023-07-30T09:41:23;2.10;;;1.40;;
74465;SDS011;62916;50.044;15.938;2023-07-30T09:43:59;1.90;;;1.40;;
74465;SDS011;62916;50.044;15.938;2023-07-30T09:46:30;2.00;;;1.50;;
74465;SDS011;62916;50.044;15.938;2023-07-30T09:49:01;2.30;;;1.70;;
74465;SDS011;62916;50.044;15.938;2023-07-30T09:51:35;2.00;;;1.30;;
74465;SDS011;62916;50.044;15.938;2023-07-30T09:54:07;2.10;;;1.40;;
74465;SDS011;62916;50.044;15.938;2023-07-30T09:56:41;1.90;;;1.30;;
74465;SDS011;62916;50.044;15.938;2023-07-30T09:59:12;2.00;;;1.30;;
74465;SDS011;62916;50.044;15.938;2023-07-30T10:01:43;1.80;;;1.20;;
74465;SDS011;62916;50.044;15.938;2023-07-30T10:04:18;1.70;;;1.30;;
74465;SDS011;62916;50.044;15.938;2023-07-30T10:06:51;1.40;;;0.70;;
74465;SDS011;62916;50.044;15.938;2023-07-30T10:09:27;1.40;;;0.90;;
74465;SDS011;62916;50.044;15.938;2023-07-30T10:11:59;3.20;;;1.50;;
74465;SDS011;62916;50.044;15.938;2023-07-30T10:14:32;2.30;;;1.00;;
74465;SDS011;62916;50.044;15.938;2023-07-30T10:17:04;2.00;;;1.00;;
74465;SDS011;62916;50.044;15.938;2023-07-30T10:19:38;2.10;;;0.80;;
74465;SDS011;62916;50.044;15.938;2023-07-30T10:22:22;2.70;;;0.90;;
74465;SDS011;62916;50.044;15.938;2023-07-30T10:24:57;2.30;;;0.70;;
74465;SDS011;62916;50.044;15.938;2023-07-30T10:27:37;2.70;;;1.00;;
74465;SDS011;62916;50.044;15.938;2023-07-30T10:30:11;0.90;;;0.50;;
74465;SDS011;62916;50.044;15.938;2023-07-30T10:32:57;1.00;;;0.90;;
74465;SDS011;62916;50.044;15.938;2023-07-30T10:35:37;1.60;;;0.70;;
74465;SDS011;62916;50.044;15.938;2023-07-30T10:38:16;1.80;;;0.50;;
74465;SDS011;62916;50.044;15.938;2023-07-30T10:41:02;1.70;;;0.60;;
74465;SDS011;62916;50.044;15.938;2023-07-30T10:43:36;2.30;;;0.90;;
74465;SDS011;62916;50.044;15.938;2023-07-30T10:46:09;1.90;;;0.80;;
74465;SDS011;62916;50.044;15.938;2023-07-30T10:48:42;4.50;;;0.60;;
74465;SDS011;62916;50.044;15.938;2023-07-30T10:51:15;3.50;;;0.40;;
74465;SDS011;62916;50.044;15.938;2023-07-30T10:53:49;3.30;;;0.80;;
74465;SDS011;62916;50.044;15.938;2023-07-30T10:56:22;1.80;;;0.90;;
74465;SDS011;62916;50.044;15.938;2023-07-30T10:58:54;2.10;;;0.80;;
74465;SDS011;62916;50.044;15.938;2023-07-30T11:01:25;2.70;;;0.70;;
74465;SDS011;62916;50.044;15.938;2023-07-30T11:03:56;1.50;;;0.60;;
74465;SDS011;62916;50.044;15.938;2023-07-30T11:06:27;2.40;;;0.60;;
74465;SDS011;62916;50.044;15.938;2023-07-30T11:08:59;2.60;;;0.70;;
74465;SDS011;62916;50.044;15.938;2023-07-30T11:11:29;2.80;;;0.60;;
74465;SDS011;62916;50.044;15.938;2023-07-30T11:14:01;3.70;;;0.90;;
74465;SDS011;62916;50.044;15.938;2023-07-30T11:16:33;1.70;;;0.40;;
74465;SDS011;62916;50.044;15.938;2023-07-30T11:19:08;1.80;;;0.50;;
74465;SDS011;62916;50.044;15.938;2023-07-30T11:21:45;1.90;;;0.60;;
74465;SDS011;62916;50.044;15.938;2023-07-30T11:24:21;0.90;;;0.60;;
74465;SDS011;62916;50.044;15.938;2023-07-30T11:27:03;1.80;;;0.70;;
74465;SDS011;62916;50.044;15.938;2023-07-30T11:29:35;2.00;;;0.60;;
74465;SDS011;62916;50.044;15.938;2023-07-30T11:32:06;1.50;;;0.60;;
74465;SDS011;62916;50.044;15.938;2023-07-30T11:34:37;0.90;;;0.50;;
74465;SDS011;62916;50.044;15.938;2023-07-30T11:37:08;1.10;;;0.40;;
74465;SDS011;62916;50.044;15.938;2023-07-30T11:39:40;0.60;;;0.30;;
74465;SDS011;62916;50.044;15.938;2023-07-30T11:42:12;1.10;;;0.50;;
74465;SDS011;62916;50.044;15.938;2023-07-30T11:44:43;0.70;;;0.30;;
74465;SDS011;62916;50.044;15.938;2023-07-30T11:47:15;0.90;;;0.40;;
74465;SDS011;62916;50.044;15.938;2023-07-30T11:49:57;0.60;;;0.30;;
74465;SDS011;62916;50.044;15.938;2023-07-30T11:52:28;1.30;;;0.50;;
74465;SDS011;62916;50.044;15.938;2023-07-30T11:55:03;0.50;;;0.40;;
74465;SDS011;62916;50.044;15.938;2023-07-30T11:57:35;0.70;;;0.50;;
74465;SDS011;62916;50.044;15.938;2023-07-30T12:00:07;1.50;;;0.30;;
74465;SDS011;62916;50.044;15.938;2023-07-30T12:02:39;0.50;;;0.40;;
74465;SDS011;62916;50.044;15.938;2023-07-30T12:05:11;1.60;;;0.70;;
74465;SDS011;62916;50.044;15.938;2023-07-30T12:07:48;1.00;;;0.70;;
74465;SDS011;62916;50.044;15.938;2023-07-30T12:10:19;1.60;;;0.50;;
74465;SDS011;62916;50.044;15.938;2023-07-30T12:12:51;1.60;;;0.60;;
74465;SDS011;62916;50.044;15.938;2023-07-30T12:15:22;1.20;;;0.80;;
74465;SDS011;62916;50.044;15.938;2023-07-30T12:17:54;0.50;;;0.50;;
74465;SDS011;62916;50.044;15.938;2023-07-30T12:20:28;1.20;;;0.60;;
74465;SDS011;62916;50.044;15.938;2023-07-30T12:22:59;1.30;;;0.50;;
74465;SDS011;62916;50.044;15.938;2023-07-30T12:25:30;0.70;;;0.60;;
74465;SDS011;62916;50.044;15.938;2023-07-30T12:28:02;0.80;;;0.70;;
74465;SDS011;62916;50.044;15.938;2023-07-30T12:30:33;0.70;;;0.70;;
74465;SDS011;62916;50.044;15.938;2023-07-30T12:33:05;1.10;;;0.60;;
74465;SDS011;62916;50.044;15.938;2023-07-30T12:35:36;2.10;;;0.60;;
74465;SDS011;62916;50.044;15.938;2023-07-30T12:38:07;0.50;;;0.50;;
74465;SDS011;62916;50.044;15.938;2023-07-30T12:40:38;1.10;;;0.60;;
74465;SDS011;62916;50.044;15.938;2023-07-30T12:43:09;1.00;;;0.80;;
74465;SDS011;62916;50.044;15.938;2023-07-30T12:45:41;4.40;;;0.60;;
74465;SDS011;62916;50.044;15.938;2023-07-30T12:48:12;2.50;;;0.70;;
74465;SDS011;62916;50.044;15.938;2023-07-30T12:50:43;1.10;;;0.40;;
74465;SDS011;62916;50.044;15.938;2023-07-30T12:53:14;1.80;;;0.90;;
74465;SDS011;62916;50.044;15.938;2023-07-30T12:55:45;1.70;;;0.80;;
74465;SDS011;62916;50.044;15.938;2023-07-30T12:58:16;1.10;;;0.80;;
74465;SDS011;62916;50.044;15.938;2023-07-30T13:00:47;1.10;;;0.80;;
74465;SDS011;62916;50.044;15.938;2023-07-30T13:03:19;1.50;;;0.70;;
74465;SDS011;62916;50.044;15.938;2023-07-30T13:05:50;1.80;;;0.50;;
74465;SDS011;62916;50.044;15.938;2023-07-30T13:08:22;0.60;;;0.50;;
74465;SDS011;62916;50.044;15.938;2023-07-30T13:10:53;1.20;;;0.90;;
74465;SDS011;62916;50.044;15.938;2023-07-30T13:13:24;2.80;;;0.90;;
74465;SDS011;62916;50.044;15.938;2023-07-30T13:15:56;2.60;;;0.70;;
74465;SDS011;62916;50.044;15.938;2023-07-30T13:18:29;1.70;;;1.30;;
74465;SDS011;62916;50.044;15.938;2023-07-30T13:21:00;2.50;;;0.60;;
74465;SDS011;62916;50.044;15.938;2023-07-30T13:23:32;1.10;;;0.60;;
74465;SDS011;62916;50.044;15.938;2023-07-30T13:26:03;0.90;;;0.70;;
74465;SDS011;62916;50.044;15.938;2023-07-30T13:28:34;1.90;;;0.90;;
74465;SDS011;62916;50.044;15.938;2023-07-30T13:31:06;1.50;;;0.50;;
74465;SDS011;62916;50.044;15.938;2023-07-30T13:33:36;0.90;;;0.60;;
74465;SDS011;62916;50.044;15.938;2023-07-30T13:36:08;1.70;;;0.70;;
74465;SDS011;62916;50.044;15.938;2023-07-30T13:38:39;1.90;;;0.90;;
74465;SDS011;62916;50.044;15.938;2023-07-30T13:41:11;1.00;;;0.80;;
74465;SDS011;62916;50.044;15.938;2023-07-30T13:43:42;1.30;;;0.70;;
74465;SDS011;62916;50.044;15.938;2023-07-30T13:46:13;1.20;;;0.70;;
74465;SDS011;62916;50.044;15.938;2023-07-30T13:48:44;0.90;;;0.40;;
74465;SDS011;62916;50.044;15.938;2023-07-30T13:51:15;1.00;;;0.90;;
74465;SDS011;62916;50.044;15.938;2023-07-30T13:53:46;0.70;;;0.50;;
74465;SDS011;62916;50.044;15.938;2023-07-30T13:56:17;0.70;;;0.50;;
74465;SDS011;62916;50.044;15.938;2023-07-30T13:58:48;1.50;;;0.70;;
74465;SDS011;62916;50.044;15.938;2023-07-30T14:01:20;1.00;;;0.70;;
74465;SDS011;62916;50.044;15.938;2023-07-30T14:03:51;1.10;;;1.00;;
74465;SDS011;62916;50.044;15.938;2023-07-30T14:06:21;0.90;;;0.90;;
74465;SDS011;62916;50.044;15.938;2023-07-30T14:08:53;0.70;;;0.70;;
74465;SDS011;62916;50.044;15.938;2023-07-30T14:11:24;1.30;;;1.20;;
74465;SDS011;62916;50.044;15.938;2023-07-30T14:13:57;0.70;;;0.70;;
74465;SDS011;62916;50.044;15.938;2023-07-30T14:16:29;1.10;;;0.70;;
74465;SDS011;62916;50.044;15.938;2023-07-30T14:19:00;1.10;;;0.90;;
74465;SDS011;62916;50.044;15.938;2023-07-30T14:21:31;1.30;;;0.80;;
74465;SDS011;62916;50.044;15.938;2023-07-30T14:24:03;1.40;;;0.70;;
74465;SDS011;62916;50.044;15.938;2023-07-30T14:26:34;0.60;;;0.60;;
74465;SDS011;62916;50.044;15.938;2023-07-30T14:29:05;1.40;;;0.80;;
74465;SDS011;62916;50.044;15.938;2023-07-30T14:31:36;1.60;;;0.80;;
74465;SDS011;62916;50.044;15.938;2023-07-30T14:34:08;1.90;;;1.30;;
74465;SDS011;62916;50.044;15.938;2023-07-30T14:36:39;0.90;;;0.70;;
74465;SDS011;62916;50.044;15.938;2023-07-30T14:39:10;1.20;;;0.80;;
74465;SDS011;62916;50.044;15.938;2023-07-30T14:41:41;0.70;;;0.70;;
74465;SDS011;62916;50.044;15.938;2023-07-30T14:44:12;0.80;;;0.60;;
74465;SDS011;62916;50.044;15.938;2023-07-30T14:46:44;2.40;;;0.90;;
74465;SDS011;62916;50.044;15.938;2023-07-30T14:49:15;1.40;;;0.90;;
74465;SDS011;62916;50.044;15.938;2023-07-30T14:51:47;1.20;;;0.70;;
74465;SDS011;62916;50.044;15.938;2023-07-30T14:54:20;2.00;;;0.80;;
74465;SDS011;62916;50.044;15.938;2023-07-30T14:56:51;2.30;;;0.80;;
74465;SDS011;62916;50.044;15.938;2023-07-30T14:59:23;1.40;;;0.90;;